Date,TemperatureHighF,TemperatureAvgF,TemperatureLowF,DewpointHighF,DewpointAvgF,DewpointLowF,HumidityHigh,HumidityAvg,HumidityLow,PressureMaxIn,PressureMinIn,WindSpeedMaxMPH,WindSpeedAvgMPH,GustSpeedMaxMPH,PrecipitationSumIn
2013-1-1,35,29,19,27,14,6,78,54,43,29.89,29.68,17,2,21,0.04
2013-1-2,27,15,5,16,5,-6,92,63,52,30.10,29.87,13,1,14,0.01
2013-1-3,22,10,1,6,-1,-7,85,61,33,30.11,29.96,2,0,2,0.00
2013-1-4,37,24,7,25,17,4,93,76,55,29.96,29.78,3,0,3,0.00
2013-1-5,50,28,17,32,18,15,93,69,41,30.25,29.80,19,0,19,0.01
2013-1-6,42,33,17,29,26,15,94,76,56,30.21,29.93,8,0,10,0.07
2013-1-7,38,28,15,31,22,13,95,78,44,30.38,29.93,11,1,14,0.01
2013-1-8,46,32,15,31,24,13,94,75,46,30.35,30.26,12,0,15,0.03
2013-1-9,42,34,17,35,27,15,95,77,56,30.39,29.97,7,0,9,0.01
2013-1-10,46,40,26,30,25,22,90,56,45,30.53,30.00,19,2,19,0.00
2013-1-11,39,34,21,34,30,19,95,85,65,30.51,30.24,2,0,2,0.12
2013-1-12,41,39,36,40,38,35,96,96,95,30.23,30.14,2,0,2,0.06
2013-1-13,58,49,39,49,43,36,97,82,45,30.16,29.91,4,0,5,0.01
2013-1-14,62,48,39,52,39,27,97,73,44,30.26,29.86,9,1,10,0.00
2013-1-15,42,33,27,29,25,23,94,72,52,30.33,30.23,2,0,4,0.00
2013-1-16,32,31,28,31,29,25,95,94,80,30.24,29.80,4,0,4,0.00
2013-1-17,42,32,24,38,26,8,96,79,44,30.10,29.80,12,1,15,0.28
2013-1-18,26,16,11,10,-1,-9,82,48,31,30.42,30.04,16,1,17,0.00
2013-1-19,46,38,17,31,23,6,83,56,41,30.35,29.89,19,1,19,0.18
2013-1-20,53,44,28,33,28,11,80,54,30,29.86,29.55,17,3,24,0.01
2013-1-21,26,22,17,20,10,-1,93,61,38,30.07,29.80,4,0,4,0.00
2013-1-22,24,18,9,18,8,-2,93,67,37,30.05,29.74,17,1,18,0.00
2013-1-23,13,7,1,-1,-11,-16,68,43,29,30.11,30.03,17,1,17,0.00
2013-1-24,16,9,-3,-8,-12,-16,60,39,30,30.14,30.01,18,2,20,0.00
2013-1-25,21,16,5,2,-5,-9,61,39,27,30.24,30.02,16,1,17,0.00
2013-1-26,22,15,8,11,2,-9,92,61,30,30.17,29.96,17,1,19,0.00
2013-1-27,28,21,11,3,-2,-6,66,37,25,30.41,30.16,18,2,21,0.00
2013-1-28,28,22,12,21,13,-4,93,74,30,30.40,29.99,2,0,4,0.00
2013-1-29,35,26,22,31,24,20,95,93,82,30.16,29.99,0,0,0,0.01
2013-1-30,59,47,31,58,46,30,98,96,93,30.13,29.49,11,1,12,0.47
2013-1-31,60,44,29,59,33,13,98,67,39,29.52,28.96,18,2,18,0.31
2013-2-1,29,27,25,15,13,11,61,55,51,29.62,29.53,6,2,16,0.00
2013-2-2,30,25,15,11,7,2,64,45,34,30.19,30.00,9,0,10,0.00
2013-2-3,27,24,16,22,19,12,93,82,57,30.01,29.68,7,0,8,0.00
2013-2-4,23,20,17,19,9,2,93,65,45,29.87,29.67,7,0,9,0.00
2013-2-5,32,20,12,17,9,3,85,63,38,29.99,29.87,2,0,7,0.00
2013-2-6,39,27,19,26,18,6,94,72,38,30.26,29.88,6,0,11,0.02
2013-2-7,28,20,11,4,-1,-8,67,42,21,30.50,30.25,6,0,9,0.00
2013-2-8,22,17,15,17,15,3,93,91,44,30.46,29.66,24,2,24,0.00
2013-2-9,20,17,13,18,13,6,93,86,73,30.13,29.58,22,3,25,0.00
2013-2-10,41,27,8,12,6,1,88,44,22,30.34,30.14,9,1,12,0.10
2013-2-11,32,17,8,31,15,5,95,90,83,30.31,29.57,0,0,6,0.00
2013-2-12,45,37,31,32,30,28,95,79,52,29.83,29.54,4,0,9,0.44
2013-2-13,45,31,23,30,24,21,94,79,43,29.82,29.68,2,0,7,0.04
2013-2-14,46,36,24,25,22,19,94,60,38,29.95,29.66,11,1,11,0.01
2013-2-15,53,34,19,33,27,17,95,77,46,29.96,29.89,3,1,3,0.00
2013-2-16,41,35,25,34,25,17,95,70,52,29.92,29.70,7,0,9,0.02
2013-2-17,30,20,15,19,8,2,93,62,44,29.70,29.31,29,4,32,0.02
2013-2-18,22,16,13,3,1,-3,60,53,33,30.08,29.60,13,3,24,0.00
2013-2-19,46,33,19,41,21,3,96,63,38,30.11,29.55,3,0,7,0.31
2013-2-20,39,31,25,38,22,14,96,69,47,29.71,29.49,13,1,13,0.01
2013-2-21,30,24,22,16,13,9,74,64,47,30.10,29.70,11,1,13,0.00
2013-2-22,42,33,18,26,21,16,93,64,38,30.36,30.15,9,0,10,0.00
2013-2-23,38,34,28,33,30,25,95,86,73,30.31,29.92,6,0,6,0.00
2013-2-24,36,32,30,35,31,28,95,95,94,29.92,29.69,9,0,9,0.29
2013-2-25,42,32,27,34,30,26,95,90,64,30.20,29.86,0,0,2,0.34
2013-2-26,42,33,26,39,29,24,96,88,63,30.33,30.15,1,0,1,0.04
2013-2-27,41,36,32,40,35,31,96,94,81,30.16,29.55,12,1,13,1.27
2013-2-28,51,39,33,38,35,32,96,87,54,29.61,29.51,2,0,11,0.01
2013-3-1,41,36,33,34,31,29,95,84,71,29.65,29.51,2,0,4,0.00
2013-3-2,45,36,30,30,28,26,88,72,54,29.65,29.60,6,0,7,0.00
2013-3-3,40,36,29,35,31,26,95,82,70,29.62,29.54,8,0,17,0.06
2013-3-4,38,33,29,28,24,22,83,72,57,29.70,29.55,15,2,19,0.00
2013-3-5,45,34,28,35,28,22,95,77,54,30.05,29.70,7,1,12,0.02
2013-3-6,38,35,32,36,33,28,95,91,71,30.13,30.04,6,1,12,0.13
2013-3-7,33,31,30,32,29,27,95,94,86,30.10,29.98,13,2,14,0.09
2013-3-8,42,32,28,33,26,21,95,81,46,30.15,29.93,14,2,16,0.07
2013-3-9,49,36,23,30,25,18,94,68,36,30.33,30.14,9,1,10,0.24
2013-3-10,46,36,18,34,30,16,95,77,55,30.41,30.27,6,1,7,0.00
2013-3-11,44,35,30,41,34,28,96,95,88,30.30,30.13,3,0,4,0.00
2013-3-12,53,47,40,50,46,39,97,96,90,30.13,29.74,7,0,9,0.27
2013-3-13,53,41,26,50,30,22,97,69,37,29.75,29.71,3,1,5,0.00
2013-3-14,37,29,20,24,17,4,94,63,43,29.79,29.66,17,1,21,0.00
2013-3-15,42,28,17,30,15,3,87,61,25,29.82,29.59,9,1,19,0.00
2013-3-16,39,33,25,26,14,8,83,47,30,29.85,29.65,9,1,14,0.00
2013-3-17,37,30,16,18,9,0,93,44,25,30.30,29.85,18,2,18,0.00
2013-3-18,34,27,12,25,15,0,85,61,35,30.38,30.02,3,0,7,0.00
2013-3-19,33,30,24,32,29,22,95,95,90,30.18,29.61,7,1,9,0.01
2013-3-20,38,29,22,28,23,20,94,81,54,29.76,29.65,6,0,7,0.22
2013-3-21,43,28,16,28,22,14,94,82,30,29.76,29.58,1,0,5,0.28
2013-3-22,43,36,23,25,20,15,94,55,34,29.68,29.56,9,1,12,0.15
2013-3-23,44,37,25,24,21,18,81,52,37,29.73,29.60,19,2,21,0.05
2013-3-24,50,42,26,29,24,22,94,51,36,29.80,29.70,14,2,14,0.00
2013-3-25,43,34,24,34,30,22,94,84,70,29.74,29.54,5,0,8,0.00
2013-3-26,46,37,31,28,23,18,87,60,34,29.75,29.54,3,0,7,0.00
2013-3-27,54,40,25,36,26,22,95,62,32,29.86,29.72,4,1,5,0.00
2013-3-28,48,41,34,38,32,28,96,73,48,30.00,29.86,2,0,2,0.03
2013-3-29,59,43,31,37,33,30,95,68,35,30.04,29.98,6,0,6,0.00
2013-3-30,59,46,30,34,24,16,89,44,20,30.08,30.01,12,1,12,0.00
2013-3-31,62,50,22,42,25,20,96,43,22,30.11,29.75,10,1,12,0.09
2013-4-1,61,44,33,46,32,10,97,66,31,29.76,29.53,16,1,19,0.30
2013-4-2,41,32,26,16,12,9,60,44,29,29.88,29.76,11,1,12,0.00
2013-4-3,30,28,27,16,14,11,60,53,48,29.92,29.87,5,1,11,0.00
2013-4-4,56,38,26,17,14,10,65,42,18,30.26,30.12,3,1,5,0.00
2013-4-5,62,52,42,28,24,20,54,35,23,29.83,29.68,17,2,17,0.00
2013-4-6,47,37,24,21,7,3,58,31,17,30.31,29.88,17,2,19,0.00
2013-4-7,58,46,21,41,26,14,93,49,28,30.29,29.97,16,2,16,0.00
2013-4-8,66,50,39,46,38,29,97,68,25,30.11,29.93,3,0,5,0.00
2013-4-9,68,53,44,50,44,38,97,74,39,30.08,29.89,5,1,6,0.06
2013-4-10,60,50,44,51,46,42,97,89,65,30.01,29.89,2,0,2,0.54
2013-4-11,51,44,39,47,38,28,97,81,48,30.16,29.85,4,0,5,0.09
2013-4-12,41,36,34,36,34,26,95,91,54,30.18,29.81,7,1,9,0.43
2013-4-13,55,45,34,41,38,33,96,79,50,29.94,29.76,8,0,11,0.10
2013-4-14,54,46,37,40,34,28,96,65,38,30.21,29.90,16,1,16,0.00
2013-4-15,51,41,28,38,34,26,96,77,54,30.39,30.20,4,0,4,0.00
2013-4-16,68,52,34,52,42,33,97,73,42,30.39,30.06,14,2,17,0.00
2013-4-17,67,56,37,53,34,27,84,48,25,30.37,30.06,8,1,14,0.00
2013-4-18,63,51,30,42,33,28,96,54,31,30.47,30.18,7,1,12,0.00
2013-4-19,76,65,52,63,58,43,98,80,50,30.15,29.76,14,2,15,0.00
2013-4-20,68,54,46,64,39,31,98,58,38,29.95,29.65,19,2,19,0.37
2013-4-21,55,42,32,30,21,18,74,43,30,30.65,30.25,12,2,14,0.00
2013-4-22,50,40,26,35,31,21,94,72,34,30.81,30.59,6,1,7,0.00
2013-4-23,41,39,31,40,37,29,96,95,88,30.59,30.11,9,1,9,0.05
2013-4-24,76,55,41,51,46,40,97,75,35,30.10,29.83,6,1,11,0.01
2013-4-25,66,55,45,53,35,25,97,51,23,30.26,29.85,8,1,12,0.03
2013-4-26,58,45,31,41,37,29,96,77,35,30.47,30.29,3,0,3,0.00
2013-4-27,69,56,31,48,35,30,97,49,29,30.46,30.34,10,1,10,0.00
2013-4-28,68,60,33,47,37,32,97,45,27,30.40,30.27,11,1,12,0.00
2013-4-29,72,56,40,47,36,30,90,49,28,30.31,30.25,4,0,5,0.00
2013-4-30,71,54,39,38,30,22,88,46,22,30.40,30.27,3,0,3,0.00
2013-5-1,70,51,33,40,33,29,96,59,25,30.54,30.39,3,0,3,0.00
2013-5-2,78,50,37,46,39,36,96,73,23,30.53,30.42,5,0,5,0.00
2013-5-3,60,50,38,44,41,37,96,72,52,30.59,30.47,4,1,4,0.00
2013-5-4,53,42,34,47,39,33,97,90,73,30.43,30.35,4,0,4,0.00
2013-7-2,77,62,61,77,62,60,100,98,98,30.28,30.26,3,0,4,0.03
2013-7-3,90,82,65,74,71,64,99,70,54,30.31,30.24,8,0,8,0.03
2013-7-4,94,90,82,75,72,69,75,57,46,30.32,30.24,8,0,8,0.03
2013-7-5,82,81,80,74,74,73,82,79,76,30.28,30.27,4,0,4,0.00
2013-7-13,67,66,66,66,66,65,99,98,97,30.28,30.27,0,0,0,0.00
2013-7-14,90,85,72,74,71,66,99,65,46,30.29,30.21,9,0,9,0.00
2013-7-15,94,85,67,74,72,67,99,67,44,30.16,30.10,2,0,2,0.00
2013-7-16,87,77,66,70,68,66,99,74,56,30.15,30.09,2,0,2,0.00
2013-7-17,90,78,66,74,71,66,99,80,54,30.14,29.96,2,0,2,0.00
2013-7-18,80,76,72,74,73,68,99,90,73,30.02,29.95,2,0,2,0.00
2013-7-19,89,85,82,77,75,72,81,72,58,29.75,29.74,6,0,6,0.00
2013-7-20,92,83,70,79,70,66,94,68,48,29.78,29.67,9,0,9,0.10
2013-7-21,82,76,67,67,64,59,98,68,51,29.99,29.94,4,0,4,0.00
2013-7-22,75,70,67,67,66,64,99,86,71,29.99,29.92,3,0,3,0.00
2013-7-23,76,72,67,73,71,66,99,95,86,29.75,29.56,2,0,2,1.74
2013-7-24,78,73,69,69,63,57,99,72,61,29.88,29.58,6,0,6,0.00
2013-7-25,59,58,58,58,57,52,98,94,79,30.08,29.99,2,0,2,0.47
2013-7-26,72,67,61,67,65,60,99,93,79,29.98,29.92,12,0,12,0.15
2013-7-27,86,78,62,68,62,57,99,59,43,30.05,30.00,9,0,9,0.01
2013-7-28,76,70,65,69,67,64,99,90,79,30.01,29.98,4,0,4,0.00
2013-7-29,79,73,65,70,68,64,98,85,71,30.01,29.97,2,0,2,0.00
2013-7-30,83,72,58,63,59,54,98,68,38,30.07,30.01,2,0,3,0.00
2013-7-31,65,58,56,61,57,55,97,95,87,30.07,30.04,0,0,0,0.00
2013-8-1,68,66,57,65,63,55,97,91,86,29.98,29.89,1,0,2,0.00
2013-8-2,65,63,63,63,62,61,98,96,90,29.84,29.79,2,0,2,0.50
2013-8-3,83,72,59,66,61,54,99,70,40,29.81,29.78,9,0,9,0.00
2013-8-4,81,72,59,64,57,53,98,60,41,29.84,29.78,8,1,8,0.00
2013-8-5,77,63,54,53,45,38,97,57,26,29.99,29.88,6,0,6,0.00
2013-8-6,75,60,45,55,52,44,97,78,41,30.13,30.01,4,0,4,0.00
2013-8-7,78,60,50,59,54,49,97,82,48,30.13,30.09,4,0,4,0.00
2013-8-8,76,74,61,71,69,60,98,86,78,30.03,30.00,4,0,4,0.05
2013-8-9,74,71,70,74,71,70,99,99,97,29.97,29.72,5,0,5,1.65
2013-8-10,83,72,57,71,60,48,99,73,30,29.98,29.76,14,0,14,0.00
2013-8-11,84,76,55,64,54,50,98,49,33,30.07,30.00,8,0,8,0.00
2013-8-12,55,55,55,54,54,54,97,97,97,29.96,29.95,0,0,0,0.00
2013-8-13,74,68,62,67,65,61,99,90,76,29.84,29.68,0,0,0,0.02
2013-8-14,70,66,60,60,53,50,98,64,52,29.85,29.67,12,1,12,0.00
2013-8-15,70,61,49,58,55,47,97,82,59,30.04,29.96,0,0,0,0.00
2013-8-17,81,68,58,69,60,57,99,76,46,30.27,30.23,3,0,3,0.00
2013-8-18,83,74,60,69,62,57,99,68,41,30.26,30.09,5,0,5,0.00
2013-8-19,81,70,56,64,62,55,97,78,54,29.99,29.95,2,0,2,0.00
2013-8-20,82,73,59,68,67,58,98,83,60,30.06,29.98,0,0,0,0.00
2013-8-21,74,71,58,68,66,57,98,87,80,30.08,30.02,0,0,0,0.00
2013-8-23,84,76,62,63,56,51,81,54,33,30.05,29.91,7,0,7,0.00
2013-8-24,83,74,52,55,47,42,97,42,28,30.31,30.23,7,0,7,0.00
2013-8-25,86,75,50,68,54,48,99,52,29,30.35,30.16,7,0,7,0.00
2013-8-26,64,64,64,58,58,58,82,81,80,30.08,30.07,2,0,2,0.00
2013-8-28,74,69,66,66,65,64,96,85,70,29.93,29.89,2,0,2,0.00
2013-8-29,65,62,61,64,60,59,98,92,85,30.05,30.00,0,0,1,0.01
2013-8-30,87,76,61,68,65,60,98,73,47,30.00,29.80,7,0,7,0.00
2013-8-31,82,75,69,74,72,67,99,91,76,29.82,29.78,4,0,4,0.07
2013-9-1,88,79,71,74,71,69,99,79,56,29.89,29.84,6,0,6,0.10
2013-9-2,73,72,71,73,72,71,99,99,99,29.83,29.71,2,0,2,1.14
2013-9-3,72,69,66,70,66,64,99,90,81,29.76,29.69,2,0,2,0.00
2013-9-4,73,67,63,61,59,57,89,77,59,29.87,29.86,1,0,1,0.00
2013-9-5,61,60,60,60,60,59,98,98,98,29.84,29.84,0,0,0,0.00
2013-9-6,74,61,41,51,44,37,97,60,30,30.21,30.02,7,0,7,0.01
2013-9-7,82,69,47,61,55,45,97,65,34,30.00,29.82,9,0,9,0.00
2013-9-8,71,63,55,61,51,40,84,65,49,29.98,29.71,11,0,11,0.00
2013-9-9,72,60,38,53,46,37,97,64,34,30.20,30.09,8,0,8,0.00
2013-9-10,76,69,61,70,66,58,99,93,82,30.08,30.00,9,0,9,0.06
2013-9-11,69,69,69,69,69,69,99,99,99,30.01,30.01,0,0,0,0.00
2013-9-20,66,57,52,60,56,51,98,95,81,30.00,29.96,0,0,0,2.33
2013-9-21,71,68,66,65,62,58,95,81,63,29.78,29.74,9,0,9,0.00
2013-9-22,72,65,56,64,56,49,98,73,46,29.72,29.62,12,1,12,0.70
2013-9-23,49,48,47,43,42,41,85,81,78,29.93,29.78,6,0,6,0.00
2013-9-24,57,49,36,49,45,35,95,85,69,29.85,29.83,0,0,0,0.00
2013-9-25,54,54,53,53,53,52,97,97,97,29.94,29.91,0,0,0,0.00
2013-9-26,56,53,50,53,51,48,97,93,84,30.05,29.94,2,0,2,0.00
2013-9-27,54,54,54,52,52,52,94,94,94,30.10,30.10,0,0,0,0.00
2013-9-28,66,55,48,59,52,47,97,88,60,30.31,30.21,2,0,2,0.00
2013-9-29,72,58,44,56,49,43,97,75,41,30.19,30.06,4,0,4,0.00
2013-9-30,48,48,48,47,47,47,97,97,97,30.04,30.03,1,0,1,0.00
2013-10-1,67,57,52,60,55,51,98,95,77,29.84,29.82,0,0,0,0.00
2013-10-3,49,48,48,48,48,47,97,97,97,29.95,29.95,0,0,0,0.00
2013-10-4,63,61,57,62,59,55,98,93,79,30.06,30.01,2,0,2,0.07
2013-10-5,67,61,57,58,56,55,97,84,70,30.09,30.05,1,0,2,0.01
2013-10-6,55,53,51,54,52,50,97,96,89,30.20,30.14,2,0,2,0.20
2013-10-7,74,70,58,68,65,57,98,85,78,30.02,29.78,15,1,15,0.07
2013-10-8,51,47,45,46,45,44,97,92,78,30.27,30.24,2,0,2,0.06
2013-10-9,49,38,36,47,36,35,95,95,92,30.35,30.34,0,0,0,0.00
2013-10-12,51,50,49,50,49,47,97,97,97,30.35,30.34,0,0,0,0.00
2013-10-13,63,54,42,54,47,41,97,81,52,30.41,30.33,4,0,4,0.01
2013-10-14,31,31,31,30,30,30,95,95,95,30.27,30.27,0,0,0,0.00
2013-10-18,68,61,49,57,48,39,98,66,48,29.84,29.62,14,0,14,0.09
2013-10-19,69,58,36,48,44,35,97,62,39,29.90,29.71,6,0,6,0.00
2013-10-20,64,56,43,46,38,34,97,53,35,29.89,29.68,17,1,17,0.01
2013-10-21,33,32,32,32,31,31,95,95,95,29.97,29.96,0,0,0,0.00
2013-10-23,32,32,32,31,31,31,95,95,95,29.67,29.67,0,0,3,0.00
2013-10-24,46,44,40,30,29,28,68,56,49,29.74,29.72,3,0,3,0.00
2013-10-25,29,29,29,28,28,28,94,94,94,29.83,29.83,0,0,0,0.00
2013-10-27,51,50,42,41,38,36,92,64,58,29.78,29.76,11,2,11,0.02
2014-1-1,25,24,24,8,7,6,48,46,45,30.18,30.17,5,1,5,0.00
2014-1-2,1,0,-2,-2,-3,-4,91,90,89,29.93,29.86,14,2,14,0.00